sensor_id;sensor_type;location;lat;lon;timestamp;temperature;humidity
58993;DHT22;44782;0.000;0.000;2022-10-31T00:01:22;19.30;68.60
58993;DHT22;44782;0.000;0.000;2022-10-31T00:03:38;19.30;68.60
58993;DHT22;44782;0.000;0.000;2022-10-31T00:05:54;19.30;68.50
58993;DHT22;44782;0.000;0.000;2022-10-31T00:08:09;19.30;68.50
58993;DHT22;44782;0.000;0.000;2022-10-31T00:10:25;19.30;68.60
58993;DHT22;44782;0.000;0.000;2022-10-31T00:12:40;19.30;68.50
58993;DHT22;44782;0.000;0.000;2022-10-31T00:14:56;19.30;68.50
58993;DHT22;44782;0.000;0.000;2022-10-31T00:17:12;19.30;68.50
58993;DHT22;44782;0.000;0.000;2022-10-31T00:19:27;19.30;68.40
58993;DHT22;44782;0.000;0.000;2022-10-31T00:21:43;19.20;69.00
58993;DHT22;44782;0.000;0.000;2022-10-31T00:23:59;19.20;68.30
58993;DHT22;44782;0.000;0.000;2022-10-31T00:26:15;19.20;68.40
58993;DHT22;44782;0.000;0.000;2022-10-31T00:28:31;19.20;68.20
58993;DHT22;44782;0.000;0.000;2022-10-31T00:30:47;19.20;68.20
58993;DHT22;44782;0.000;0.000;2022-10-31T00:33:06;19.20;68.10
58993;DHT22;44782;0.000;0.000;2022-10-31T00:35:21;19.20;68.10
58993;DHT22;44782;0.000;0.000;2022-10-31T00:37:37;19.20;68.10
58993;DHT22;44782;0.000;0.000;2022-10-31T00:39:53;19.20;68.10
58993;DHT22;44782;0.000;0.000;2022-10-31T00:42:08;19.20;68.10
58993;DHT22;44782;0.000;0.000;2022-10-31T00:44:24;19.20;68.10
58993;DHT22;44782;0.000;0.000;2022-10-31T00:46:39;19.20;68.10
58993;DHT22;44782;0.000;0.000;2022-10-31T00:48:55;19.20;68.10
58993;DHT22;44782;0.000;0.000;2022-10-31T00:51:11;19.20;68.00
58993;DHT22;44782;0.000;0.000;2022-10-31T00:53:27;19.20;68.00
58993;DHT22;44782;0.000;0.000;2022-10-31T00:55:42;19.20;68.00
58993;DHT22;44782;0.000;0.000;2022-10-31T00:57:58;19.20;67.90
58993;DHT22;44782;0.000;0.000;2022-10-31T01:00:14;19.10;67.90
58993;DHT22;44782;0.000;0.000;2022-10-31T01:02:30;19.10;67.80
58993;DHT22;44782;0.000;0.000;2022-10-31T01:04:46;19.10;67.80
58993;DHT22;44782;0.000;0.000;2022-10-31T01:07:02;19.10;67.80
58993;DHT22;44782;0.000;0.000;2022-10-31T01:09:17;19.10;67.70
58993;DHT22;44782;0.000;0.000;2022-10-31T01:11:33;19.10;67.70
58993;DHT22;44782;0.000;0.000;2022-10-31T01:13:53;19.10;67.60
58993;DHT22;44782;0.000;0.000;2022-10-31T01:16:12;19.10;67.50
58993;DHT22;44782;0.000;0.000;2022-10-31T01:18:29;19.10;67.60
58993;DHT22;44782;0.000;0.000;2022-10-31T01:20:46;19.10;67.60
58993;DHT22;44782;0.000;0.000;2022-10-31T01:23:02;19.00;67.60
58993;DHT22;44782;0.000;0.000;2022-10-31T01:25:17;19.10;67.60
58993;DHT22;44782;0.000;0.000;2022-10-31T01:27:33;19.00;67.50
58993;DHT22;44782;0.000;0.000;2022-10-31T01:29:48;19.10;67.50
58993;DHT22;44782;0.000;0.000;2022-10-31T01:32:04;19.00;67.50
58993;DHT22;44782;0.000;0.000;2022-10-31T01:34:20;19.00;67.50
58993;DHT22;44782;0.000;0.000;2022-10-31T01:36:37;19.00;67.50
58993;DHT22;44782;0.000;0.000;2022-10-31T01:38:56;19.00;67.50
58993;DHT22;44782;0.000;0.000;2022-10-31T01:41:15;19.00;67.40
58993;DHT22;44782;0.000;0.000;2022-10-31T01:43:46;19.00;67.40
58993;DHT22;44782;0.000;0.000;2022-10-31T01:46:02;19.00;67.10
58993;DHT22;44782;0.000;0.000;2022-10-31T01:48:21;19.00;67.40
58993;DHT22;44782;0.000;0.000;2022-10-31T01:50:39;19.00;67.40
58993;DHT22;44782;0.000;0.000;2022-10-31T01:52:56;19.00;67.20
58993;DHT22;44782;0.000;0.000;2022-10-31T01:55:20;19.00;67.30
58993;DHT22;44782;0.000;0.000;2022-10-31T01:57:38;19.00;67.20
58993;DHT22;44782;0.000;0.000;2022-10-31T01:59:59;19.00;67.20
58993;DHT22;44782;0.000;0.000;2022-10-31T02:02:16;19.00;67.20
58993;DHT22;44782;0.000;0.000;2022-10-31T02:04:32;19.00;67.30
58993;DHT22;44782;0.000;0.000;2022-10-31T02:06:57;18.90;67.30
58993;DHT22;44782;0.000;0.000;2022-10-31T02:09:14;19.00;67.20
58993;DHT22;44782;0.000;0.000;2022-10-31T02:11:31;18.90;67.20
58993;DHT22;44782;0.000;0.000;2022-10-31T02:13:48;18.90;67.20
58993;DHT22;44782;0.000;0.000;2022-10-31T02:16:04;18.90;67.30
58993;DHT22;44782;0.000;0.000;2022-10-31T02:18:20;18.90;67.30
58993;DHT22;44782;0.000;0.000;2022-10-31T02:26:11;18.90;66.90
58993;DHT22;44782;0.000;0.000;2022-10-31T02:33:52;18.90;66.80
58993;DHT22;44782;0.000;0.000;2022-10-31T02:36:36;18.90;66.80
58993;DHT22;44782;0.000;0.000;2022-10-31T02:48:51;18.90;66.80
58993;DHT22;44782;0.000;0.000;2022-10-31T02:51:09;18.90;67.10
58993;DHT22;44782;0.000;0.000;2022-10-31T02:53:26;18.80;67.10
58993;DHT22;44782;0.000;0.000;2022-10-31T02:58:14;18.80;66.80
58993;DHT22;44782;0.000;0.000;2022-10-31T03:00:41;18.80;67.10
58993;DHT22;44782;0.000;0.000;2022-10-31T03:03:17;18.80;67.00
58993;DHT22;44782;0.000;0.000;2022-10-31T03:08:31;18.80;66.70
58993;DHT22;44782;0.000;0.000;2022-10-31T03:15:43;18.80;66.90
58993;DHT22;44782;0.000;0.000;2022-10-31T03:18:08;18.80;66.80
58993;DHT22;44782;0.000;0.000;2022-10-31T03:20:33;18.80;66.90
58993;DHT22;44782;0.000;0.000;2022-10-31T03:22:51;18.80;67.10
58993;DHT22;44782;0.000;0.000;2022-10-31T03:25:08;18.80;67.10
58993;DHT22;44782;0.000;0.000;2022-10-31T03:27:26;18.80;67.10
58993;DHT22;44782;0.000;0.000;2022-10-31T03:29:44;18.80;67.00
58993;DHT22;44782;0.000;0.000;2022-10-31T03:32:08;18.80;67.10
58993;DHT22;44782;0.000;0.000;2022-10-31T03:34:27;18.80;66.80
58993;DHT22;44782;0.000;0.000;2022-10-31T03:36:44;18.80;67.10
58993;DHT22;44782;0.000;0.000;2022-10-31T03:39:02;18.70;67.00
58993;DHT22;44782;0.000;0.000;2022-10-31T03:41:22;18.80;67.10
58993;DHT22;44782;0.000;0.000;2022-10-31T03:43:43;18.80;67.00
58993;DHT22;44782;0.000;0.000;2022-10-31T03:46:02;18.80;67.10
58993;DHT22;44782;0.000;0.000;2022-10-31T03:48:19;18.80;67.10
58993;DHT22;44782;0.000;0.000;2022-10-31T03:50:42;18.70;67.00
58993;DHT22;44782;0.000;0.000;2022-10-31T03:53:09;18.70;67.00
58993;DHT22;44782;0.000;0.000;2022-10-31T03:58:00;18.80;67.00
58993;DHT22;44782;0.000;0.000;2022-10-31T04:00:18;18.80;66.80
58993;DHT22;44782;0.000;0.000;2022-10-31T04:02:36;18.70;67.10
58993;DHT22;44782;0.000;0.000;2022-10-31T04:04:54;18.70;67.00
58993;DHT22;44782;0.000;0.000;2022-10-31T04:07:12;18.70;67.10
58993;DHT22;44782;0.000;0.000;2022-10-31T04:09:31;18.70;67.10
58993;DHT22;44782;0.000;0.000;2022-10-31T04:11:51;18.70;67.00
58993;DHT22;44782;0.000;0.000;2022-10-31T04:14:09;18.70;67.10
58993;DHT22;44782;0.000;0.000;2022-10-31T04:16:26;18.60;67.00
58993;DHT22;44782;0.000;0.000;2022-10-31T04:18:42;18.70;67.10
58993;DHT22;44782;0.000;0.000;2022-10-31T04:21:06;18.70;67.00
58993;DHT22;44782;0.000;0.000;2022-10-31T04:23:25;18.70;66.80
58993;DHT22;44782;0.000;0.000;2022-10-31T04:25:40;18.70;66.90
58993;DHT22;44782;0.000;0.000;2022-10-31T04:27:56;18.70;67.10
58993;DHT22;44782;0.000;0.000;2022-10-31T04:30:12;18.50;66.90
58993;DHT22;44782;0.000;0.000;2022-10-31T04:32:27;18.60;67.00
58993;DHT22;44782;0.000;0.000;2022-10-31T04:34:43;18.60;67.00
58993;DHT22;44782;0.000;0.000;2022-10-31T04:36:59;18.60;67.00
58993;DHT22;44782;0.000;0.000;2022-10-31T04:39:14;18.60;66.90
58993;DHT22;44782;0.000;0.000;2022-10-31T04:41:30;18.60;66.90
58993;DHT22;44782;0.000;0.000;2022-10-31T04:43:46;18.60;66.90
58993;DHT22;44782;0.000;0.000;2022-10-31T04:46:01;18.60;66.90
58993;DHT22;44782;0.000;0.000;2022-10-31T04:48:17;18.60;66.80
58993;DHT22;44782;0.000;0.000;2022-10-31T04:50:33;18.60;66.80
58993;DHT22;44782;0.000;0.000;2022-10-31T04:52:48;18.60;66.90
58993;DHT22;44782;0.000;0.000;2022-10-31T04:55:04;18.60;66.90
58993;DHT22;44782;0.000;0.000;2022-10-31T04:57:20;18.60;66.80
58993;DHT22;44782;0.000;0.000;2022-10-31T04:59:36;18.60;66.80
58993;DHT22;44782;0.000;0.000;2022-10-31T05:01:51;18.60;66.80
58993;DHT22;44782;0.000;0.000;2022-10-31T05:04:07;18.60;66.90
58993;DHT22;44782;0.000;0.000;2022-10-31T05:06:22;18.60;66.80
58993;DHT22;44782;0.000;0.000;2022-10-31T05:08:38;18.60;66.80
58993;DHT22;44782;0.000;0.000;2022-10-31T05:10:54;18.60;66.80
58993;DHT22;44782;0.000;0.000;2022-10-31T05:13:09;18.50;66.80
58993;DHT22;44782;0.000;0.000;2022-10-31T05:15:26;18.50;66.70
58993;DHT22;44782;0.000;0.000;2022-10-31T05:17:42;18.60;66.70
58993;DHT22;44782;0.000;0.000;2022-10-31T05:19:58;18.60;66.70
58993;DHT22;44782;0.000;0.000;2022-10-31T05:22:14;18.50;66.70
58993;DHT22;44782;0.000;0.000;2022-10-31T05:24:29;18.50;66.70
58993;DHT22;44782;0.000;0.000;2022-10-31T05:26:45;18.50;66.70
58993;DHT22;44782;0.000;0.000;2022-10-31T05:29:00;18.50;66.70
58993;DHT22;44782;0.000;0.000;2022-10-31T05:31:16;18.50;66.70
58993;DHT22;44782;0.000;0.000;2022-10-31T05:33:32;18.50;67.50
58993;DHT22;44782;0.000;0.000;2022-10-31T05:35:48;18.50;66.60
58993;DHT22;44782;0.000;0.000;2022-10-31T05:38:03;18.50;66.70
58993;DHT22;44782;0.000;0.000;2022-10-31T05:40:20;18.60;66.70
58993;DHT22;44782;0.000;0.000;2022-10-31T05:42:38;18.50;66.60
58993;DHT22;44782;0.000;0.000;2022-10-31T05:44:54;18.50;66.70
58993;DHT22;44782;0.000;0.000;2022-10-31T05:47:09;18.50;66.70
58993;DHT22;44782;0.000;0.000;2022-10-31T05:49:25;18.50;66.60
58993;DHT22;44782;0.000;0.000;2022-10-31T05:51:41;18.50;66.60
58993;DHT22;44782;0.000;0.000;2022-10-31T05:53:56;18.50;66.60
58993;DHT22;44782;0.000;0.000;2022-10-31T05:56:12;18.50;66.60
58993;DHT22;44782;0.000;0.000;2022-10-31T05:58:27;18.50;66.60
58993;DHT22;44782;0.000;0.000;2022-10-31T06:00:43;18.50;66.70
58993;DHT22;44782;0.000;0.000;2022-10-31T06:03:00;18.50;67.50
58993;DHT22;44782;0.000;0.000;2022-10-31T06:05:16;18.50;66.70
58993;DHT22;44782;0.000;0.000;2022-10-31T06:07:33;18.50;66.70
58993;DHT22;44782;0.000;0.000;2022-10-31T06:09:49;18.50;66.60
58993;DHT22;44782;0.000;0.000;2022-10-31T06:12:05;18.50;66.60
58993;DHT22;44782;0.000;0.000;2022-10-31T06:14:20;18.50;66.60
58993;DHT22;44782;0.000;0.000;2022-10-31T06:16:36;18.50;66.70
58993;DHT22;44782;0.000;0.000;2022-10-31T06:18:52;18.50;66.60
58993;DHT22;44782;0.000;0.000;2022-10-31T06:21:07;18.50;66.60
58993;DHT22;44782;0.000;0.000;2022-10-31T06:23:23;18.50;66.60
58993;DHT22;44782;0.000;0.000;2022-10-31T06:25:39;18.50;66.60
58993;DHT22;44782;0.000;0.000;2022-10-31T06:27:55;18.50;66.60
58993;DHT22;44782;0.000;0.000;2022-10-31T06:30:11;18.50;66.70
58993;DHT22;44782;0.000;0.000;2022-10-31T06:32:27;18.50;66.70
58993;DHT22;44782;0.000;0.000;2022-10-31T06:34:43;18.50;66.70
58993;DHT22;44782;0.000;0.000;2022-10-31T06:36:59;18.50;66.70
58993;DHT22;44782;0.000;0.000;2022-10-31T06:39:15;18.50;66.70
58993;DHT22;44782;0.000;0.000;2022-10-31T06:41:30;18.40;66.70
58993;DHT22;44782;0.000;0.000;2022-10-31T06:43:47;18.40;66.90
58993;DHT22;44782;0.000;0.000;2022-10-31T06:46:04;18.40;67.00
58993;DHT22;44782;0.000;0.000;2022-10-31T06:48:20;18.40;67.10
58993;DHT22;44782;0.000;0.000;2022-10-31T06:50:35;18.40;67.20
58993;DHT22;44782;0.000;0.000;2022-10-31T06:52:56;18.40;67.30
58993;DHT22;44782;0.000;0.000;2022-10-31T06:55:12;18.40;67.40
58993;DHT22;44782;0.000;0.000;2022-10-31T06:57:28;18.40;67.40
58993;DHT22;44782;0.000;0.000;2022-10-31T06:59:43;18.40;67.60
58993;DHT22;44782;0.000;0.000;2022-10-31T07:01:59;18.40;67.60
58993;DHT22;44782;0.000;0.000;2022-10-31T07:04:15;18.40;67.70
58993;DHT22;44782;0.000;0.000;2022-10-31T07:06:30;18.40;67.70
58993;DHT22;44782;0.000;0.000;2022-10-31T07:08:46;18.40;67.70
58993;DHT22;44782;0.000;0.000;2022-10-31T07:11:02;18.40;67.60
58993;DHT22;44782;0.000;0.000;2022-10-31T07:13:17;18.40;67.60
58993;DHT22;44782;0.000;0.000;2022-10-31T07:15:36;18.40;67.60
58993;DHT22;44782;0.000;0.000;2022-10-31T07:17:51;18.40;67.60
58993;DHT22;44782;0.000;0.000;2022-10-31T07:20:08;18.40;67.60
58993;DHT22;44782;0.000;0.000;2022-10-31T07:22:23;18.40;67.60
58993;DHT22;44782;0.000;0.000;2022-10-31T07:24:39;18.40;67.50
58993;DHT22;44782;0.000;0.000;2022-10-31T07:26:55;18.40;67.50
58993;DHT22;44782;0.000;0.000;2022-10-31T07:29:12;18.40;67.50
58993;DHT22;44782;0.000;0.000;2022-10-31T07:31:27;18.40;67.50
58993;DHT22;44782;0.000;0.000;2022-10-31T07:33:43;18.40;67.50
58993;DHT22;44782;0.000;0.000;2022-10-31T07:35:59;18.40;67.60
58993;DHT22;44782;0.000;0.000;2022-10-31T07:38:15;18.40;67.50
58993;DHT22;44782;0.000;0.000;2022-10-31T07:40:31;18.40;67.50
58993;DHT22;44782;0.000;0.000;2022-10-31T07:42:48;18.40;67.60
58993;DHT22;44782;0.000;0.000;2022-10-31T07:45:06;18.40;67.60
58993;DHT22;44782;0.000;0.000;2022-10-31T07:47:22;18.40;67.60
58993;DHT22;44782;0.000;0.000;2022-10-31T07:49:37;18.40;67.70
58993;DHT22;44782;0.000;0.000;2022-10-31T07:51:53;18.40;67.80
58993;DHT22;44782;0.000;0.000;2022-10-31T07:54:10;18.40;68.00
58993;DHT22;44782;0.000;0.000;2022-10-31T07:56:25;18.40;68.00
58993;DHT22;44782;0.000;0.000;2022-10-31T07:58:41;18.40;68.10
58993;DHT22;44782;0.000;0.000;2022-10-31T08:00:57;18.40;68.20
58993;DHT22;44782;0.000;0.000;2022-10-31T08:03:15;18.40;68.20
58993;DHT22;44782;0.000;0.000;2022-10-31T08:05:31;18.40;68.30
58993;DHT22;44782;0.000;0.000;2022-10-31T08:07:47;18.40;69.10
58993;DHT22;44782;0.000;0.000;2022-10-31T08:10:04;18.40;68.40
58993;DHT22;44782;0.000;0.000;2022-10-31T08:12:20;18.40;68.40
58993;DHT22;44782;0.000;0.000;2022-10-31T08:14:35;18.40;68.40
58993;DHT22;44782;0.000;0.000;2022-10-31T08:16:52;18.40;68.50
58993;DHT22;44782;0.000;0.000;2022-10-31T08:19:08;18.40;68.50
58993;DHT22;44782;0.000;0.000;2022-10-31T08:21:23;18.30;68.50
58993;DHT22;44782;0.000;0.000;2022-10-31T08:23:39;18.40;68.60
58993;DHT22;44782;0.000;0.000;2022-10-31T08:25:54;18.40;68.60
58993;DHT22;44782;0.000;0.000;2022-10-31T08:28:11;18.40;68.60
58993;DHT22;44782;0.000;0.000;2022-10-31T08:30:29;18.40;68.50
58993;DHT22;44782;0.000;0.000;2022-10-31T08:32:45;18.40;68.50
58993;DHT22;44782;0.000;0.000;2022-10-31T08:35:01;18.40;68.60
58993;DHT22;44782;0.000;0.000;2022-10-31T08:37:17;18.40;68.60
58993;DHT22;44782;0.000;0.000;2022-10-31T08:39:35;18.40;68.60
58993;DHT22;44782;0.000;0.000;2022-10-31T08:41:50;18.40;68.60
58993;DHT22;44782;0.000;0.000;2022-10-31T08:44:06;18.40;68.60
58993;DHT22;44782;0.000;0.000;2022-10-31T08:46:21;18.40;68.60
58993;DHT22;44782;0.000;0.000;2022-10-31T08:48:37;18.40;68.60
58993;DHT22;44782;0.000;0.000;2022-10-31T08:50:56;18.30;68.50
58993;DHT22;44782;0.000;0.000;2022-10-31T08:53:16;18.40;68.60
58993;DHT22;44782;0.000;0.000;2022-10-31T08:55:36;18.40;68.60
58993;DHT22;44782;0.000;0.000;2022-10-31T08:57:58;18.40;68.60
58993;DHT22;44782;0.000;0.000;2022-10-31T09:00:14;18.40;68.50
58993;DHT22;44782;0.000;0.000;2022-10-31T09:02:29;18.40;68.60
58993;DHT22;44782;0.000;0.000;2022-10-31T09:04:45;18.40;68.60
58993;DHT22;44782;0.000;0.000;2022-10-31T09:07:01;18.40;68.60
58993;DHT22;44782;0.000;0.000;2022-10-31T09:09:17;18.40;68.50
58993;DHT22;44782;0.000;0.000;2022-10-31T09:11:33;18.40;68.50
58993;DHT22;44782;0.000;0.000;2022-10-31T09:13:48;18.40;68.50
58993;DHT22;44782;0.000;0.000;2022-10-31T09:16:04;18.40;68.50
58993;DHT22;44782;0.000;0.000;2022-10-31T09:18:22;18.40;68.50
58993;DHT22;44782;0.000;0.000;2022-10-31T09:20:40;18.30;68.40
58993;DHT22;44782;0.000;0.000;2022-10-31T09:23:02;18.40;68.50
58993;DHT22;44782;0.000;0.000;2022-10-31T09:25:18;18.40;68.50
58993;DHT22;44782;0.000;0.000;2022-10-31T09:27:33;18.40;68.50
58993;DHT22;44782;0.000;0.000;2022-10-31T09:29:49;18.30;68.40
58993;DHT22;44782;0.000;0.000;2022-10-31T09:32:04;18.40;68.40
58993;DHT22;44782;0.000;0.000;2022-10-31T09:34:20;18.40;68.40
58993;DHT22;44782;0.000;0.000;2022-10-31T09:36:37;18.40;68.40
58993;DHT22;44782;0.000;0.000;2022-10-31T09:38:53;18.40;68.30
58993;DHT22;44782;0.000;0.000;2022-10-31T09:41:38;18.40;68.30
58993;DHT22;44782;0.000;0.000;2022-10-31T09:49:24;18.40;68.20
58993;DHT22;44782;0.000;0.000;2022-10-31T09:51:52;18.30;68.10
58993;DHT22;44782;0.000;0.000;2022-10-31T09:54:38;18.40;68.10
58993;DHT22;44782;0.000;0.000;2022-10-31T09:56:57;18.40;68.20
58993;DHT22;44782;0.000;0.000;2022-10-31T09:59:36;18.30;68.20
58993;DHT22;44782;0.000;0.000;2022-10-31T10:02:13;18.40;68.10
58993;DHT22;44782;0.000;0.000;2022-10-31T10:04:42;18.30;68.00
58993;DHT22;44782;0.000;0.000;2022-10-31T10:07:02;18.30;68.00
58993;DHT22;44782;0.000;0.000;2022-10-31T10:09:25;18.30;68.20
58993;DHT22;44782;0.000;0.000;2022-10-31T10:26:50;18.40;68.20
58993;DHT22;44782;0.000;0.000;2022-10-31T10:31:46;18.50;68.00
58993;DHT22;44782;0.000;0.000;2022-10-31T10:34:27;18.40;68.20
58993;DHT22;44782;0.000;0.000;2022-10-31T10:37:02;18.50;68.20
58993;DHT22;44782;0.000;0.000;2022-10-31T10:39:40;18.50;68.20
58993;DHT22;44782;0.000;0.000;2022-10-31T10:41:58;18.50;68.20
58993;DHT22;44782;0.000;0.000;2022-10-31T10:44:34;18.50;68.40
58993;DHT22;44782;0.000;0.000;2022-10-31T10:47:11;18.50;68.50
58993;DHT22;44782;0.000;0.000;2022-10-31T10:49:50;18.50;68.50
58993;DHT22;44782;0.000;0.000;2022-10-31T10:54:56;18.50;68.20
58993;DHT22;44782;0.000;0.000;2022-10-31T10:59:30;18.50;68.50
58993;DHT22;44782;0.000;0.000;2022-10-31T11:01:48;18.50;68.50
58993;DHT22;44782;0.000;0.000;2022-10-31T11:04:15;18.50;68.40
58993;DHT22;44782;0.000;0.000;2022-10-31T11:06:35;18.50;68.40
58993;DHT22;44782;0.000;0.000;2022-10-31T11:08:50;18.50;68.50
58993;DHT22;44782;0.000;0.000;2022-10-31T11:13:36;18.60;68.20
58993;DHT22;44782;0.000;0.000;2022-10-31T11:16:07;18.50;68.50
58993;DHT22;44782;0.000;0.000;2022-10-31T11:18:27;18.50;68.50
58993;DHT22;44782;0.000;0.000;2022-10-31T11:20:57;18.60;68.90
58993;DHT22;44782;0.000;0.000;2022-10-31T11:23:18;18.60;68.90
58993;DHT22;44782;0.000;0.000;2022-10-31T11:25:34;18.60;69.00
58993;DHT22;44782;0.000;0.000;2022-10-31T11:28:04;18.60;69.00
58993;DHT22;44782;0.000;0.000;2022-10-31T11:30:20;18.60;68.80
58993;DHT22;44782;0.000;0.000;2022-10-31T11:32:42;18.60;69.00
58993;DHT22;44782;0.000;0.000;2022-10-31T11:35:02;18.60;68.90
58993;DHT22;44782;0.000;0.000;2022-10-31T11:39:41;18.60;68.80
58993;DHT22;44782;0.000;0.000;2022-10-31T11:42:00;18.70;68.90
58993;DHT22;44782;0.000;0.000;2022-10-31T11:44:30;18.70;68.90
58993;DHT22;44782;0.000;0.000;2022-10-31T11:47:09;18.70;68.70
58993;DHT22;44782;0.000;0.000;2022-10-31T11:49:36;18.70;68.90
58993;DHT22;44782;0.000;0.000;2022-10-31T11:51:54;18.70;68.70
58993;DHT22;44782;0.000;0.000;2022-10-31T11:54:29;18.70;68.80
58993;DHT22;44782;0.000;0.000;2022-10-31T11:56:46;18.80;68.60
58993;DHT22;44782;0.000;0.000;2022-10-31T11:59:04;18.80;68.70
58993;DHT22;44782;0.000;0.000;2022-10-31T12:01:29;18.80;68.60
58993;DHT22;44782;0.000;0.000;2022-10-31T12:03:54;18.80;68.50
58993;DHT22;44782;0.000;0.000;2022-10-31T12:06:26;18.70;68.50
58993;DHT22;44782;0.000;0.000;2022-10-31T12:11:33;18.80;68.60
58993;DHT22;44782;0.000;0.000;2022-10-31T12:16:26;18.70;68.40
58993;DHT22;44782;0.000;0.000;2022-10-31T12:37:24;18.80;68.30
58993;DHT22;44782;0.000;0.000;2022-10-31T12:57:22;18.90;68.20
58993;DHT22;44782;0.000;0.000;2022-10-31T13:00:02;18.90;68.30
58993;DHT22;44782;0.000;0.000;2022-10-31T13:07:15;18.90;68.40
58993;DHT22;44782;0.000;0.000;2022-10-31T13:09:41;19.00;68.40
58993;DHT22;44782;0.000;0.000;2022-10-31T13:12:02;19.00;68.40
58993;DHT22;44782;0.000;0.000;2022-10-31T13:16:43;19.00;68.20
58993;DHT22;44782;0.000;0.000;2022-10-31T13:21:41;19.00;68.10
58993;DHT22;44782;0.000;0.000;2022-10-31T13:24:00;19.00;68.20
58993;DHT22;44782;0.000;0.000;2022-10-31T13:26:50;19.00;68.30
58993;DHT22;44782;0.000;0.000;2022-10-31T13:29:27;19.00;68.00
58993;DHT22;44782;0.000;0.000;2022-10-31T13:31:44;19.00;68.10
58993;DHT22;44782;0.000;0.000;2022-10-31T13:36:39;19.00;68.00
58993;DHT22;44782;0.000;0.000;2022-10-31T13:41:56;19.00;67.90
58993;DHT22;44782;0.000;0.000;2022-10-31T13:44:20;19.00;68.00
58993;DHT22;44782;0.000;0.000;2022-10-31T13:46:38;19.00;68.00
58993;DHT22;44782;0.000;0.000;2022-10-31T13:48:54;19.00;68.00
58993;DHT22;44782;0.000;0.000;2022-10-31T13:51:10;19.00;68.00
58993;DHT22;44782;0.000;0.000;2022-10-31T13:58:30;19.00;68.00
58993;DHT22;44782;0.000;0.000;2022-10-31T14:00:57;19.00;68.00
58993;DHT22;44782;0.000;0.000;2022-10-31T14:03:20;19.00;68.10
58993;DHT22;44782;0.000;0.000;2022-10-31T14:05:35;19.00;68.10
58993;DHT22;44782;0.000;0.000;2022-10-31T14:07:56;19.00;68.10
58993;DHT22;44782;0.000;0.000;2022-10-31T14:10:46;19.00;68.10
58993;DHT22;44782;0.000;0.000;2022-10-31T14:15:38;18.90;68.10
58993;DHT22;44782;0.000;0.000;2022-10-31T14:18:06;19.00;68.30
58993;DHT22;44782;0.000;0.000;2022-10-31T14:20:42;19.00;68.20
58993;DHT22;44782;0.000;0.000;2022-10-31T14:22:57;18.90;68.30
58993;DHT22;44782;0.000;0.000;2022-10-31T14:25:34;18.90;68.30
58993;DHT22;44782;0.000;0.000;2022-10-31T14:27:50;19.00;68.40
58993;DHT22;44782;0.000;0.000;2022-10-31T14:30:14;18.90;68.40
58993;DHT22;44782;0.000;0.000;2022-10-31T14:32:30;18.90;68.40
58993;DHT22;44782;0.000;0.000;2022-10-31T14:39:53;18.90;68.40
58993;DHT22;44782;0.000;0.000;2022-10-31T14:42:32;18.90;68.50
58993;DHT22;44782;0.000;0.000;2022-10-31T14:50:41;18.90;68.80
58993;DHT22;44782;0.000;0.000;2022-10-31T14:53:00;18.90;68.90
58993;DHT22;44782;0.000;0.000;2022-10-31T14:55:17;18.90;68.90
58993;DHT22;44782;0.000;0.000;2022-10-31T14:57:35;18.90;68.90
58993;DHT22;44782;0.000;0.000;2022-10-31T14:59:57;18.90;68.90
58993;DHT22;44782;0.000;0.000;2022-10-31T15:04:36;18.90;69.00
58993;DHT22;44782;0.000;0.000;2022-10-31T15:07:07;18.90;68.90
58993;DHT22;44782;0.000;0.000;2022-10-31T15:09:27;18.90;69.00
58993;DHT22;44782;0.000;0.000;2022-10-31T15:11:43;18.90;69.00
58993;DHT22;44782;0.000;0.000;2022-10-31T15:13:59;18.90;69.10
58993;DHT22;44782;0.000;0.000;2022-10-31T15:16:21;18.90;69.10
58993;DHT22;44782;0.000;0.000;2022-10-31T15:18:46;18.90;69.10
58993;DHT22;44782;0.000;0.000;2022-10-31T15:21:03;18.90;69.20
58993;DHT22;44782;0.000;0.000;2022-10-31T15:23:33;18.90;69.20
58993;DHT22;44782;0.000;0.000;2022-10-31T15:25:48;18.90;69.30
58993;DHT22;44782;0.000;0.000;2022-10-31T15:28:21;18.90;69.30
58993;DHT22;44782;0.000;0.000;2022-10-31T15:30:37;18.90;69.30
58993;DHT22;44782;0.000;0.000;2022-10-31T15:32:53;18.90;69.30
58993;DHT22;44782;0.000;0.000;2022-10-31T15:35:10;18.90;69.30
58993;DHT22;44782;0.000;0.000;2022-10-31T15:37:29;18.90;69.30
58993;DHT22;44782;0.000;0.000;2022-10-31T15:39:47;18.90;69.30
58993;DHT22;44782;0.000;0.000;2022-10-31T15:42:03;18.90;69.40
58993;DHT22;44782;0.000;0.000;2022-10-31T15:44:26;18.90;69.40
58993;DHT22;44782;0.000;0.000;2022-10-31T15:46:42;18.90;69.40
58993;DHT22;44782;0.000;0.000;2022-10-31T15:48:58;18.90;69.40
58993;DHT22;44782;0.000;0.000;2022-10-31T15:51:13;18.90;69.50
58993;DHT22;44782;0.000;0.000;2022-10-31T15:53:45;18.80;69.50
58993;DHT22;44782;0.000;0.000;2022-10-31T15:56:05;18.90;69.50
58993;DHT22;44782;0.000;0.000;2022-10-31T15:58:21;18.90;69.60
58993;DHT22;44782;0.000;0.000;2022-10-31T16:00:38;18.90;69.60
58993;DHT22;44782;0.000;0.000;2022-10-31T16:05:35;18.90;69.70
58993;DHT22;44782;0.000;0.000;2022-10-31T16:07:51;18.90;69.70
58993;DHT22;44782;0.000;0.000;2022-10-31T16:10:23;18.80;69.60
58993;DHT22;44782;0.000;0.000;2022-10-31T16:12:44;18.90;69.80
58993;DHT22;44782;0.000;0.000;2022-10-31T16:15:02;18.80;69.70
58993;DHT22;44782;0.000;0.000;2022-10-31T16:17:22;18.80;70.10
58993;DHT22;44782;0.000;0.000;2022-10-31T16:19:48;18.80;69.80
58993;DHT22;44782;0.000;0.000;2022-10-31T16:22:30;18.80;69.70
58993;DHT22;44782;0.000;0.000;2022-10-31T16:24:53;18.80;69.80
58993;DHT22;44782;0.000;0.000;2022-10-31T16:27:27;18.80;69.80
58993;DHT22;44782;0.000;0.000;2022-10-31T16:29:46;18.80;69.90
58993;DHT22;44782;0.000;0.000;2022-10-31T16:32:02;18.80;69.90
58993;DHT22;44782;0.000;0.000;2022-10-31T16:34:21;18.80;69.90
58993;DHT22;44782;0.000;0.000;2022-10-31T16:36:37;18.80;70.00
58993;DHT22;44782;0.000;0.000;2022-10-31T16:38:54;18.80;70.00
58993;DHT22;44782;0.000;0.000;2022-10-31T16:41:10;18.80;70.20
58993;DHT22;44782;0.000;0.000;2022-10-31T16:43:26;18.80;70.30
58993;DHT22;44782;0.000;0.000;2022-10-31T16:45:50;18.80;70.30
58993;DHT22;44782;0.000;0.000;2022-10-31T16:48:11;18.80;70.50
58993;DHT22;44782;0.000;0.000;2022-10-31T16:50:27;18.80;70.60
58993;DHT22;44782;0.000;0.000;2022-10-31T16:52:42;18.90;70.60
58993;DHT22;44782;0.000;0.000;2022-10-31T16:55:00;18.80;70.60
58993;DHT22;44782;0.000;0.000;2022-10-31T16:57:23;18.90;70.60
58993;DHT22;44782;0.000;0.000;2022-10-31T16:59:41;18.90;70.60
58993;DHT22;44782;0.000;0.000;2022-10-31T17:01:58;19.20;69.60
58993;DHT22;44782;0.000;0.000;2022-10-31T17:04:15;19.10;70.10
58993;DHT22;44782;0.000;0.000;2022-10-31T17:06:30;19.10;70.30
58993;DHT22;44782;0.000;0.000;2022-10-31T17:08:46;19.00;70.30
58993;DHT22;44782;0.000;0.000;2022-10-31T17:11:02;19.00;70.10
58993;DHT22;44782;0.000;0.000;2022-10-31T17:13:20;19.10;70.00
58993;DHT22;44782;0.000;0.000;2022-10-31T17:15:41;19.10;70.00
58993;DHT22;44782;0.000;0.000;2022-10-31T17:17:58;19.10;69.90
58993;DHT22;44782;0.000;0.000;2022-10-31T17:20:24;19.10;70.00